ロサンゼルス の空港の天気 - METARとTAF

ロサンゼルス国際空港 ( KLAX / LAX ) - アメリカ カリフォルニア州ロサンゼルス
飛行場実況気象(Metar)
観測時間05/29 09:53 PDT (05/29 16:53 UTC)
風向・風速西北西 3m/s
視程4850m
天気現象もや
全天の4割程度の雲 雲底高度 60m
全天を覆う雲 雲底高度 180m
気温16.1℃
湿度90%
気圧1016hPa
METARKLAX 291653Z 29006KT 3SM BR SCT002 OVC006 16/14 A3001 RMK AO2 SLP160 T01610144
過去の天気等 Google飛行場航空写真 Wunderground天気予報

過去48時間のMETAR

飛行場予報(TAF)
発表時間: 5/29 08:12 PDT (5/29 15:12 UTC)
予報対象時間: 29日8時 PDT ~ 30日11時 PDT
風向・風速西南西 3m/s
視程3220m
天気現象もや
全天を覆う雲 雲底高度 180m
29日11時 PDT から
風向・風速西南西 3m/s
視程10km以上
全天を覆う雲 雲底高度 300m
29日13時 PDT から
風向・風速西 5m/s
視程10km以上
全天の8割程度の雲 雲底高度 520m
29日19時 PDT から
風向・風速西南西 4m/s
視程10km以上
全天を覆う雲 雲底高度 370m
30日1時 PDT から
風向・風速西 3m/s
視程10km以上
天気現象もや
全天の8割程度の雲 雲底高度 270m
全天を覆う雲 雲底高度 520m
30日9時 PDT から
風向・風速西南西 3m/s
視程10km以上
全天の8割程度の雲 雲底高度 670m
KLAX 291512Z 2915/3018 25006KT 2SM BR OVC006
FM291800 24006KT P6SM OVC010
FM292000 26010KT P6SM BKN017
FM300200 25008KT P6SM OVC012
FM300800 26006KT 6SM BR BKN009 OVC017
FM301600 24006KT P6SM BKN022